sensor_id;sensor_type;location;lat;lon;timestamp;temperature;humidity
39665;DHT22;26679;50.872;4.332;2022-07-06T00:01:18;18.40;93.60
39665;DHT22;26679;50.872;4.332;2022-07-06T00:03:44;18.40;93.60
39665;DHT22;26679;50.872;4.332;2022-07-06T00:06:09;18.30;93.70
39665;DHT22;26679;50.872;4.332;2022-07-06T00:08:35;18.30;93.80
39665;DHT22;26679;50.872;4.332;2022-07-06T00:11:01;18.30;93.90
39665;DHT22;26679;50.872;4.332;2022-07-06T00:13:27;18.30;94.00
39665;DHT22;26679;50.872;4.332;2022-07-06T00:15:52;18.30;94.00
39665;DHT22;26679;50.872;4.332;2022-07-06T00:18:18;18.30;94.00
39665;DHT22;26679;50.872;4.332;2022-07-06T00:20:43;18.30;94.10
39665;DHT22;26679;50.872;4.332;2022-07-06T00:23:09;18.30;94.20
39665;DHT22;26679;50.872;4.332;2022-07-06T00:25:34;18.20;94.30
39665;DHT22;26679;50.872;4.332;2022-07-06T00:28:00;18.20;94.30
39665;DHT22;26679;50.872;4.332;2022-07-06T00:30:25;18.20;94.40
39665;DHT22;26679;50.872;4.332;2022-07-06T00:32:51;18.20;94.40
39665;DHT22;26679;50.872;4.332;2022-07-06T00:35:16;18.20;94.40
39665;DHT22;26679;50.872;4.332;2022-07-06T00:37:42;18.30;94.40
39665;DHT22;26679;50.872;4.332;2022-07-06T00:40:08;18.30;94.40
39665;DHT22;26679;50.872;4.332;2022-07-06T00:42:40;18.30;94.40
39665;DHT22;26679;50.872;4.332;2022-07-06T00:45:06;18.20;94.30
39665;DHT22;26679;50.872;4.332;2022-07-06T00:47:31;18.20;94.20
39665;DHT22;26679;50.872;4.332;2022-07-06T00:49:57;18.20;94.10
39665;DHT22;26679;50.872;4.332;2022-07-06T00:52:33;18.20;94.10
39665;DHT22;26679;50.872;4.332;2022-07-06T00:54:59;18.10;94.20
39665;DHT22;26679;50.872;4.332;2022-07-06T00:57:27;18.10;94.30
39665;DHT22;26679;50.872;4.332;2022-07-06T00:59:52;18.00;94.40
39665;DHT22;26679;50.872;4.332;2022-07-06T01:02:18;18.10;94.30
39665;DHT22;26679;50.872;4.332;2022-07-06T01:04:44;18.00;94.40
39665;DHT22;26679;50.872;4.332;2022-07-06T01:07:09;18.00;94.60
39665;DHT22;26679;50.872;4.332;2022-07-06T01:09:35;18.00;94.90
39665;DHT22;26679;50.872;4.332;2022-07-06T01:12:01;17.80;95.00
39665;DHT22;26679;50.872;4.332;2022-07-06T01:14:27;17.80;95.10
39665;DHT22;26679;50.872;4.332;2022-07-06T01:16:52;17.70;95.30
39665;DHT22;26679;50.872;4.332;2022-07-06T01:19:18;17.70;95.60
39665;DHT22;26679;50.872;4.332;2022-07-06T01:21:43;17.60;95.60
39665;DHT22;26679;50.872;4.332;2022-07-06T01:24:09;17.60;95.80
39665;DHT22;26679;50.872;4.332;2022-07-06T01:26:34;17.50;95.90
39665;DHT22;26679;50.872;4.332;2022-07-06T01:29:00;17.40;96.00
39665;DHT22;26679;50.872;4.332;2022-07-06T01:31:26;17.30;96.30
39665;DHT22;26679;50.872;4.332;2022-07-06T01:33:52;17.30;96.50
39665;DHT22;26679;50.872;4.332;2022-07-06T01:36:18;17.20;96.70
39665;DHT22;26679;50.872;4.332;2022-07-06T01:39:02;17.20;96.70
39665;DHT22;26679;50.872;4.332;2022-07-06T01:41:27;17.20;96.90
39665;DHT22;26679;50.872;4.332;2022-07-06T01:43:53;17.20;97.00
39665;DHT22;26679;50.872;4.332;2022-07-06T01:46:18;17.20;97.00
39665;DHT22;26679;50.872;4.332;2022-07-06T01:48:44;17.10;97.00
39665;DHT22;26679;50.872;4.332;2022-07-06T01:51:10;17.10;97.20
39665;DHT22;26679;50.872;4.332;2022-07-06T01:53:37;17.10;97.20
39665;DHT22;26679;50.872;4.332;2022-07-06T01:56:02;17.10;97.20
39665;DHT22;26679;50.872;4.332;2022-07-06T01:58:28;17.00;97.30
39665;DHT22;26679;50.872;4.332;2022-07-06T02:00:54;17.00;97.40
39665;DHT22;26679;50.872;4.332;2022-07-06T02:03:19;16.90;97.50
39665;DHT22;26679;50.872;4.332;2022-07-06T02:05:45;16.90;97.60
39665;DHT22;26679;50.872;4.332;2022-07-06T02:08:10;16.90;97.60
39665;DHT22;26679;50.872;4.332;2022-07-06T02:10:36;16.80;97.80
39665;DHT22;26679;50.872;4.332;2022-07-06T02:13:01;16.80;97.90
39665;DHT22;26679;50.872;4.332;2022-07-06T02:15:27;16.90;97.90
39665;DHT22;26679;50.872;4.332;2022-07-06T02:17:52;16.90;97.90
39665;DHT22;26679;50.872;4.332;2022-07-06T02:20:17;16.90;97.90
39665;DHT22;26679;50.872;4.332;2022-07-06T02:22:43;16.80;98.00
39665;DHT22;26679;50.872;4.332;2022-07-06T02:25:09;16.80;98.00
39665;DHT22;26679;50.872;4.332;2022-07-06T02:27:34;16.80;98.40
39665;DHT22;26679;50.872;4.332;2022-07-06T02:29:59;16.80;98.20
39665;DHT22;26679;50.872;4.332;2022-07-06T02:32:25;16.80;98.20
39665;DHT22;26679;50.872;4.332;2022-07-06T02:34:51;16.80;98.30
39665;DHT22;26679;50.872;4.332;2022-07-06T02:37:17;16.80;98.40
39665;DHT22;26679;50.872;4.332;2022-07-06T02:39:43;16.70;98.50
39665;DHT22;26679;50.872;4.332;2022-07-06T02:42:08;16.70;98.50
39665;DHT22;26679;50.872;4.332;2022-07-06T02:44:34;16.60;98.40
39665;DHT22;26679;50.872;4.332;2022-07-06T02:46:59;16.60;98.50
39665;DHT22;26679;50.872;4.332;2022-07-06T02:49:25;16.50;98.70
39665;DHT22;26679;50.872;4.332;2022-07-06T02:51:50;16.40;98.80
39665;DHT22;26679;50.872;4.332;2022-07-06T02:54:16;16.40;98.90
39665;DHT22;26679;50.872;4.332;2022-07-06T02:56:41;16.50;98.90
39665;DHT22;26679;50.872;4.332;2022-07-06T02:59:07;16.50;99.00
39665;DHT22;26679;50.872;4.332;2022-07-06T03:01:32;16.40;99.10
39665;DHT22;26679;50.872;4.332;2022-07-06T03:03:58;16.40;99.30
39665;DHT22;26679;50.872;4.332;2022-07-06T03:06:23;16.40;99.40
39665;DHT22;26679;50.872;4.332;2022-07-06T03:08:49;16.40;99.50
39665;DHT22;26679;50.872;4.332;2022-07-06T03:11:14;16.30;99.50
39665;DHT22;26679;50.872;4.332;2022-07-06T03:13:40;16.30;99.50
39665;DHT22;26679;50.872;4.332;2022-07-06T03:16:05;16.30;99.60
39665;DHT22;26679;50.872;4.332;2022-07-06T03:18:30;16.30;99.70
39665;DHT22;26679;50.872;4.332;2022-07-06T03:20:56;16.30;99.80
39665;DHT22;26679;50.872;4.332;2022-07-06T03:23:21;16.30;99.90
39665;DHT22;26679;50.872;4.332;2022-07-06T03:25:47;16.30;99.90
39665;DHT22;26679;50.872;4.332;2022-07-06T03:28:12;16.30;99.90
39665;DHT22;26679;50.872;4.332;2022-07-06T03:30:38;16.30;99.90
39665;DHT22;26679;50.872;4.332;2022-07-06T03:33:03;16.40;99.90
39665;DHT22;26679;50.872;4.332;2022-07-06T03:35:29;16.30;99.90
39665;DHT22;26679;50.872;4.332;2022-07-06T03:37:55;16.30;99.90
39665;DHT22;26679;50.872;4.332;2022-07-06T03:40:20;16.30;99.90
39665;DHT22;26679;50.872;4.332;2022-07-06T03:42:45;16.30;99.90
39665;DHT22;26679;50.872;4.332;2022-07-06T03:45:11;16.30;99.90
39665;DHT22;26679;50.872;4.332;2022-07-06T03:47:37;16.20;99.90
39665;DHT22;26679;50.872;4.332;2022-07-06T03:50:02;16.20;99.90
39665;DHT22;26679;50.872;4.332;2022-07-06T03:52:28;16.20;99.90
39665;DHT22;26679;50.872;4.332;2022-07-06T03:54:53;16.10;99.90
39665;DHT22;26679;50.872;4.332;2022-07-06T03:57:20;15.80;99.90
39665;DHT22;26679;50.872;4.332;2022-07-06T03:59:46;15.70;99.90
39665;DHT22;26679;50.872;4.332;2022-07-06T04:02:12;15.60;99.90
39665;DHT22;26679;50.872;4.332;2022-07-06T04:04:37;15.70;99.90
39665;DHT22;26679;50.872;4.332;2022-07-06T04:07:03;15.80;99.90
39665;DHT22;26679;50.872;4.332;2022-07-06T04:09:28;15.80;99.90
39665;DHT22;26679;50.872;4.332;2022-07-06T04:11:54;15.90;99.90
39665;DHT22;26679;50.872;4.332;2022-07-06T04:14:19;15.90;99.90
39665;DHT22;26679;50.872;4.332;2022-07-06T04:16:45;16.00;99.90
39665;DHT22;26679;50.872;4.332;2022-07-06T04:19:10;16.00;99.90
39665;DHT22;26679;50.872;4.332;2022-07-06T04:21:36;16.00;99.90
39665;DHT22;26679;50.872;4.332;2022-07-06T04:24:01;15.90;99.90
39665;DHT22;26679;50.872;4.332;2022-07-06T04:26:27;15.90;99.90
39665;DHT22;26679;50.872;4.332;2022-07-06T04:28:52;15.90;99.90
39665;DHT22;26679;50.872;4.332;2022-07-06T04:31:18;15.90;99.90
39665;DHT22;26679;50.872;4.332;2022-07-06T04:33:43;16.00;99.90
39665;DHT22;26679;50.872;4.332;2022-07-06T04:36:09;16.00;99.90
39665;DHT22;26679;50.872;4.332;2022-07-06T04:38:35;16.00;99.90
39665;DHT22;26679;50.872;4.332;2022-07-06T04:41:00;16.00;99.90
39665;DHT22;26679;50.872;4.332;2022-07-06T04:43:26;16.00;99.90
39665;DHT22;26679;50.872;4.332;2022-07-06T04:45:51;16.00;99.90
39665;DHT22;26679;50.872;4.332;2022-07-06T04:48:17;16.00;99.90
39665;DHT22;26679;50.872;4.332;2022-07-06T04:50:42;16.00;99.90
39665;DHT22;26679;50.872;4.332;2022-07-06T04:53:08;16.00;99.90
39665;DHT22;26679;50.872;4.332;2022-07-06T04:55:33;15.90;99.90
39665;DHT22;26679;50.872;4.332;2022-07-06T04:57:59;15.90;99.90
39665;DHT22;26679;50.872;4.332;2022-07-06T05:00:24;15.80;99.90
39665;DHT22;26679;50.872;4.332;2022-07-06T05:02:50;15.90;99.90
39665;DHT22;26679;50.872;4.332;2022-07-06T05:05:15;15.90;99.90
39665;DHT22;26679;50.872;4.332;2022-07-06T05:07:41;15.90;99.90
39665;DHT22;26679;50.872;4.332;2022-07-06T05:10:07;15.90;99.90
39665;DHT22;26679;50.872;4.332;2022-07-06T05:12:33;15.90;99.90
39665;DHT22;26679;50.872;4.332;2022-07-06T05:14:58;15.90;99.90
39665;DHT22;26679;50.872;4.332;2022-07-06T05:17:25;15.80;99.90
39665;DHT22;26679;50.872;4.332;2022-07-06T05:19:50;15.80;99.90
39665;DHT22;26679;50.872;4.332;2022-07-06T05:22:16;16.00;99.90
39665;DHT22;26679;50.872;4.332;2022-07-06T05:24:41;16.00;99.90
39665;DHT22;26679;50.872;4.332;2022-07-06T05:27:07;15.90;99.90
39665;DHT22;26679;50.872;4.332;2022-07-06T05:29:32;15.90;99.90
39665;DHT22;26679;50.872;4.332;2022-07-06T05:31:58;16.00;99.90
39665;DHT22;26679;50.872;4.332;2022-07-06T05:34:23;16.00;99.90
39665;DHT22;26679;50.872;4.332;2022-07-06T05:36:49;16.00;99.90
39665;DHT22;26679;50.872;4.332;2022-07-06T05:39:14;16.10;99.90
39665;DHT22;26679;50.872;4.332;2022-07-06T05:41:45;16.10;99.90
39665;DHT22;26679;50.872;4.332;2022-07-06T05:44:10;16.10;99.90
39665;DHT22;26679;50.872;4.332;2022-07-06T05:46:35;16.10;99.90
39665;DHT22;26679;50.872;4.332;2022-07-06T05:49:01;16.20;99.90
39665;DHT22;26679;50.872;4.332;2022-07-06T05:51:37;16.20;99.90
39665;DHT22;26679;50.872;4.332;2022-07-06T05:54:03;16.20;99.90
39665;DHT22;26679;50.872;4.332;2022-07-06T05:56:28;16.30;99.90
39665;DHT22;26679;50.872;4.332;2022-07-06T05:58:54;16.40;99.90
39665;DHT22;26679;50.872;4.332;2022-07-06T06:01:19;16.50;99.90
39665;DHT22;26679;50.872;4.332;2022-07-06T06:03:45;16.60;99.90
39665;DHT22;26679;50.872;4.332;2022-07-06T06:06:10;16.70;99.90
39665;DHT22;26679;50.872;4.332;2022-07-06T06:08:36;16.90;99.90
39665;DHT22;26679;50.872;4.332;2022-07-06T06:11:01;17.00;99.90
39665;DHT22;26679;50.872;4.332;2022-07-06T06:13:27;17.20;99.90
39665;DHT22;26679;50.872;4.332;2022-07-06T06:15:52;17.30;99.90
39665;DHT22;26679;50.872;4.332;2022-07-06T06:18:18;17.30;99.90
39665;DHT22;26679;50.872;4.332;2022-07-06T06:20:44;17.30;99.90
39665;DHT22;26679;50.872;4.332;2022-07-06T06:23:10;17.50;99.90
39665;DHT22;26679;50.872;4.332;2022-07-06T06:25:36;17.50;99.90
39665;DHT22;26679;50.872;4.332;2022-07-06T06:28:02;17.60;99.90
39665;DHT22;26679;50.872;4.332;2022-07-06T06:30:28;17.70;99.90
39665;DHT22;26679;50.872;4.332;2022-07-06T06:35:30;17.80;99.90
39665;DHT22;26679;50.872;4.332;2022-07-06T06:37:56;17.80;99.90
39665;DHT22;26679;50.872;4.332;2022-07-06T06:40:21;17.80;99.90
39665;DHT22;26679;50.872;4.332;2022-07-06T06:42:47;18.00;99.90
39665;DHT22;26679;50.872;4.332;2022-07-06T06:45:13;18.20;99.70
39665;DHT22;26679;50.872;4.332;2022-07-06T06:47:38;18.40;99.30
39665;DHT22;26679;50.872;4.332;2022-07-06T06:50:04;18.60;98.60
39665;DHT22;26679;50.872;4.332;2022-07-06T06:52:29;18.80;98.20
39665;DHT22;26679;50.872;4.332;2022-07-06T06:54:58;18.80;98.20
39665;DHT22;26679;50.872;4.332;2022-07-06T06:57:25;19.00;97.70
39665;DHT22;26679;50.872;4.332;2022-07-06T06:59:50;19.20;97.40
39665;DHT22;26679;50.872;4.332;2022-07-06T07:02:16;19.30;96.80
39665;DHT22;26679;50.872;4.332;2022-07-06T07:04:41;19.30;95.80
39665;DHT22;26679;50.872;4.332;2022-07-06T07:07:07;19.40;96.00
39665;DHT22;26679;50.872;4.332;2022-07-06T07:09:32;19.50;96.00
39665;DHT22;26679;50.872;4.332;2022-07-06T07:11:58;19.50;95.90
39665;DHT22;26679;50.872;4.332;2022-07-06T07:14:23;19.50;95.70
39665;DHT22;26679;50.872;4.332;2022-07-06T07:16:49;19.50;95.60
39665;DHT22;26679;50.872;4.332;2022-07-06T07:19:14;19.50;95.80
39665;DHT22;26679;50.872;4.332;2022-07-06T07:21:39;19.70;94.20
39665;DHT22;26679;50.872;4.332;2022-07-06T07:24:05;19.80;94.00
39665;DHT22;26679;50.872;4.332;2022-07-06T07:26:32;19.90;93.90
39665;DHT22;26679;50.872;4.332;2022-07-06T07:28:58;20.10;94.00
39665;DHT22;26679;50.872;4.332;2022-07-06T07:31:23;20.10;93.00
39665;DHT22;26679;50.872;4.332;2022-07-06T07:33:49;20.10;93.30
39665;DHT22;26679;50.872;4.332;2022-07-06T07:36:14;20.00;92.60
39665;DHT22;26679;50.872;4.332;2022-07-06T07:38:40;20.00;91.60
39665;DHT22;26679;50.872;4.332;2022-07-06T07:41:05;20.10;91.40
39665;DHT22;26679;50.872;4.332;2022-07-06T07:43:31;20.10;91.30
39665;DHT22;26679;50.872;4.332;2022-07-06T07:45:57;20.20;91.10
39665;DHT22;26679;50.872;4.332;2022-07-06T07:48:22;20.30;90.90
39665;DHT22;26679;50.872;4.332;2022-07-06T07:50:48;20.40;90.10
39665;DHT22;26679;50.872;4.332;2022-07-06T07:53:13;20.50;90.00
39665;DHT22;26679;50.872;4.332;2022-07-06T07:55:39;20.50;89.80
39665;DHT22;26679;50.872;4.332;2022-07-06T07:58:04;20.60;89.70
39665;DHT22;26679;50.872;4.332;2022-07-06T08:00:30;20.50;89.40
39665;DHT22;26679;50.872;4.332;2022-07-06T08:02:55;20.40;90.40
39665;DHT22;26679;50.872;4.332;2022-07-06T08:05:21;20.40;90.60
39665;DHT22;26679;50.872;4.332;2022-07-06T08:07:46;20.50;90.90
39665;DHT22;26679;50.872;4.332;2022-07-06T08:10:12;20.60;90.30
39665;DHT22;26679;50.872;4.332;2022-07-06T08:12:37;20.80;90.30
39665;DHT22;26679;50.872;4.332;2022-07-06T08:15:04;20.80;90.40
39665;DHT22;26679;50.872;4.332;2022-07-06T08:17:29;20.60;90.60
39665;DHT22;26679;50.872;4.332;2022-07-06T08:19:55;20.60;90.90
39665;DHT22;26679;50.872;4.332;2022-07-06T08:22:20;20.70;91.00
39665;DHT22;26679;50.872;4.332;2022-07-06T08:24:46;20.70;91.10
39665;DHT22;26679;50.872;4.332;2022-07-06T08:27:11;20.70;91.00
39665;DHT22;26679;50.872;4.332;2022-07-06T08:29:37;20.70;90.70
39665;DHT22;26679;50.872;4.332;2022-07-06T08:32:02;20.80;90.80
39665;DHT22;26679;50.872;4.332;2022-07-06T08:34:28;21.00;90.60
39665;DHT22;26679;50.872;4.332;2022-07-06T08:36:54;20.80;90.80
39665;DHT22;26679;50.872;4.332;2022-07-06T08:39:19;20.80;90.90
39665;DHT22;26679;50.872;4.332;2022-07-06T08:41:45;20.90;90.80
39665;DHT22;26679;50.872;4.332;2022-07-06T08:44:15;20.80;91.00
39665;DHT22;26679;50.872;4.332;2022-07-06T08:46:41;21.00;91.10
39665;DHT22;26679;50.872;4.332;2022-07-06T08:49:07;21.30;90.80
39665;DHT22;26679;50.872;4.332;2022-07-06T08:51:34;21.60;90.60
39665;DHT22;26679;50.872;4.332;2022-07-06T08:54:00;21.80;90.20
39665;DHT22;26679;50.872;4.332;2022-07-06T08:56:27;21.90;90.10
39665;DHT22;26679;50.872;4.332;2022-07-06T08:58:53;21.80;90.40
39665;DHT22;26679;50.872;4.332;2022-07-06T09:01:19;21.90;90.50
39665;DHT22;26679;50.872;4.332;2022-07-06T09:03:45;22.10;90.10
39665;DHT22;26679;50.872;4.332;2022-07-06T09:06:12;22.00;90.10
39665;DHT22;26679;50.872;4.332;2022-07-06T09:08:40;21.90;90.10
39665;DHT22;26679;50.872;4.332;2022-07-06T09:11:06;22.00;90.10
39665;DHT22;26679;50.872;4.332;2022-07-06T09:13:31;22.10;89.80
39665;DHT22;26679;50.872;4.332;2022-07-06T09:16:08;22.40;89.60
39665;DHT22;26679;50.872;4.332;2022-07-06T09:18:36;22.00;89.00
39665;DHT22;26679;50.872;4.332;2022-07-06T09:21:01;22.00;89.80
39665;DHT22;26679;50.872;4.332;2022-07-06T09:23:28;22.10;89.60
39665;DHT22;26679;50.872;4.332;2022-07-06T09:25:54;22.50;89.50
39665;DHT22;26679;50.872;4.332;2022-07-06T09:28:20;22.60;88.80
39665;DHT22;26679;50.872;4.332;2022-07-06T09:30:45;22.70;88.80
39665;DHT22;26679;50.872;4.332;2022-07-06T09:33:11;22.90;88.40
39665;DHT22;26679;50.872;4.332;2022-07-06T09:35:39;22.80;88.50
39665;DHT22;26679;50.872;4.332;2022-07-06T09:38:12;22.90;88.30
39665;DHT22;26679;50.872;4.332;2022-07-06T09:40:39;22.80;87.90
39665;DHT22;26679;50.872;4.332;2022-07-06T09:43:08;23.10;88.10
39665;DHT22;26679;50.872;4.332;2022-07-06T09:45:41;23.30;87.20
39665;DHT22;26679;50.872;4.332;2022-07-06T09:48:09;23.40;87.40
39665;DHT22;26679;50.872;4.332;2022-07-06T09:50:42;23.70;85.80
39665;DHT22;26679;50.872;4.332;2022-07-06T09:53:09;23.60;85.40
39665;DHT22;26679;50.872;4.332;2022-07-06T09:55:35;23.60;85.30
39665;DHT22;26679;50.872;4.332;2022-07-06T09:58:00;23.50;85.60
39665;DHT22;26679;50.872;4.332;2022-07-06T10:00:26;23.40;86.10
39665;DHT22;26679;50.872;4.332;2022-07-06T10:02:51;23.30;86.40
39665;DHT22;26679;50.872;4.332;2022-07-06T10:05:18;23.20;86.60
39665;DHT22;26679;50.872;4.332;2022-07-06T10:07:46;23.30;86.40
39665;DHT22;26679;50.872;4.332;2022-07-06T10:10:15;23.30;86.20
39665;DHT22;26679;50.872;4.332;2022-07-06T10:12:41;23.40;86.20
39665;DHT22;26679;50.872;4.332;2022-07-06T10:15:07;23.70;85.90
39665;DHT22;26679;50.872;4.332;2022-07-06T10:17:33;23.80;86.00
39665;DHT22;26679;50.872;4.332;2022-07-06T10:19:59;24.00;85.50
39665;DHT22;26679;50.872;4.332;2022-07-06T10:22:25;23.90;85.30
39665;DHT22;26679;50.872;4.332;2022-07-06T10:24:50;24.40;85.20
39665;DHT22;26679;50.872;4.332;2022-07-06T10:27:16;24.70;84.50
39665;DHT22;26679;50.872;4.332;2022-07-06T10:29:42;24.90;84.10
39665;DHT22;26679;50.872;4.332;2022-07-06T10:32:07;25.30;83.80
39665;DHT22;26679;50.872;4.332;2022-07-06T10:34:33;25.60;83.00
39665;DHT22;26679;50.872;4.332;2022-07-06T10:37:01;25.60;82.60
39665;DHT22;26679;50.872;4.332;2022-07-06T10:39:34;25.60;82.70
39665;DHT22;26679;50.872;4.332;2022-07-06T10:42:26;25.20;83.10
39665;DHT22;26679;50.872;4.332;2022-07-06T10:44:56;25.00;83.80
39665;DHT22;26679;50.872;4.332;2022-07-06T10:47:26;24.90;83.90
39665;DHT22;26679;50.872;4.332;2022-07-06T10:49:52;24.90;83.40
39665;DHT22;26679;50.872;4.332;2022-07-06T10:52:42;24.90;83.80
39665;DHT22;26679;50.872;4.332;2022-07-06T10:55:27;25.20;82.90
39665;DHT22;26679;50.872;4.332;2022-07-06T10:57:53;25.50;82.50
39665;DHT22;26679;50.872;4.332;2022-07-06T11:00:18;26.10;82.20
39665;DHT22;26679;50.872;4.332;2022-07-06T11:02:44;26.40;81.20
39665;DHT22;26679;50.872;4.332;2022-07-06T11:05:39;26.90;80.00
39665;DHT22;26679;50.872;4.332;2022-07-06T11:08:00;26.90;79.90
39665;DHT22;26679;50.872;4.332;2022-07-06T11:10:26;27.80;79.40
39665;DHT22;26679;50.872;4.332;2022-07-06T11:12:58;28.60;76.70
39665;DHT22;26679;50.872;4.332;2022-07-06T11:20:37;28.60;74.40
39665;DHT22;26679;50.872;4.332;2022-07-06T11:23:03;27.90;75.00
39665;DHT22;26679;50.872;4.332;2022-07-06T11:25:28;27.40;74.70
39665;DHT22;26679;50.872;4.332;2022-07-06T11:27:54;26.70;75.50
39665;DHT22;26679;50.872;4.332;2022-07-06T11:30:20;26.50;76.40
39665;DHT22;26679;50.872;4.332;2022-07-06T11:32:46;26.40;76.90
39665;DHT22;26679;50.872;4.332;2022-07-06T11:35:11;26.50;77.10
39665;DHT22;26679;50.872;4.332;2022-07-06T11:37:37;26.90;77.10
39665;DHT22;26679;50.872;4.332;2022-07-06T11:40:05;27.40;76.00
39665;DHT22;26679;50.872;4.332;2022-07-06T11:42:31;27.40;75.40
39665;DHT22;26679;50.872;4.332;2022-07-06T11:44:57;27.60;75.90
39665;DHT22;26679;50.872;4.332;2022-07-06T11:47:29;28.20;75.00
39665;DHT22;26679;50.872;4.332;2022-07-06T11:49:55;28.80;74.40
39665;DHT22;26679;50.872;4.332;2022-07-06T11:52:21;29.00;74.10
39665;DHT22;26679;50.872;4.332;2022-07-06T11:54:48;29.20;73.00
39665;DHT22;26679;50.872;4.332;2022-07-06T11:57:14;28.60;73.10
39665;DHT22;26679;50.872;4.332;2022-07-06T11:59:40;28.00;74.50
39665;DHT22;26679;50.872;4.332;2022-07-06T12:02:07;28.50;74.20
39665;DHT22;26679;50.872;4.332;2022-07-06T12:04:33;29.00;73.80
39665;DHT22;26679;50.872;4.332;2022-07-06T12:06:59;28.50;74.10
39665;DHT22;26679;50.872;4.332;2022-07-06T12:09:25;28.60;73.90
39665;DHT22;26679;50.872;4.332;2022-07-06T12:11:51;28.20;74.90
39665;DHT22;26679;50.872;4.332;2022-07-06T12:14:17;27.70;75.20
39665;DHT22;26679;50.872;4.332;2022-07-06T12:16:43;27.00;76.20
39665;DHT22;26679;50.872;4.332;2022-07-06T12:19:09;26.80;76.60
39665;DHT22;26679;50.872;4.332;2022-07-06T12:21:36;27.20;76.70
39665;DHT22;26679;50.872;4.332;2022-07-06T12:24:07;27.40;76.50
39665;DHT22;26679;50.872;4.332;2022-07-06T12:26:38;27.00;76.80
39665;DHT22;26679;50.872;4.332;2022-07-06T12:29:08;26.60;77.40
39665;DHT22;26679;50.872;4.332;2022-07-06T12:34:17;25.70;79.00
39665;DHT22;26679;50.872;4.332;2022-07-06T12:36:44;24.80;80.60
39665;DHT22;26679;50.872;4.332;2022-07-06T12:39:16;24.80;80.90
39665;DHT22;26679;50.872;4.332;2022-07-06T12:44:19;25.40;80.30
39665;DHT22;26679;50.872;4.332;2022-07-06T12:46:45;26.60;79.40
39665;DHT22;26679;50.872;4.332;2022-07-06T12:49:12;28.50;76.80
39665;DHT22;26679;50.872;4.332;2022-07-06T12:54:15;30.20;72.80
39665;DHT22;26679;50.872;4.332;2022-07-06T12:59:21;28.90;73.90
39665;DHT22;26679;50.872;4.332;2022-07-06T13:01:47;28.60;75.00
39665;DHT22;26679;50.872;4.332;2022-07-06T13:04:12;27.70;75.40
39665;DHT22;26679;50.872;4.332;2022-07-06T13:06:38;27.30;76.90
39665;DHT22;26679;50.872;4.332;2022-07-06T13:09:03;26.90;77.20
39665;DHT22;26679;50.872;4.332;2022-07-06T13:11:29;26.50;76.80
39665;DHT22;26679;50.872;4.332;2022-07-06T13:13:54;26.30;77.20
39665;DHT22;26679;50.872;4.332;2022-07-06T13:16:20;26.30;77.70
39665;DHT22;26679;50.872;4.332;2022-07-06T13:18:47;26.40;78.70
39665;DHT22;26679;50.872;4.332;2022-07-06T13:21:13;27.60;77.20
39665;DHT22;26679;50.872;4.332;2022-07-06T13:23:39;28.70;75.90
39665;DHT22;26679;50.872;4.332;2022-07-06T13:26:04;28.80;75.00
39665;DHT22;26679;50.872;4.332;2022-07-06T13:28:30;28.80;74.60
39665;DHT22;26679;50.872;4.332;2022-07-06T13:30:55;29.00;74.50
39665;DHT22;26679;50.872;4.332;2022-07-06T13:33:21;29.80;73.70
39665;DHT22;26679;50.872;4.332;2022-07-06T13:35:47;30.40;72.50
39665;DHT22;26679;50.872;4.332;2022-07-06T13:38:12;30.80;72.50
39665;DHT22;26679;50.872;4.332;2022-07-06T13:40:38;31.50;71.40
39665;DHT22;26679;50.872;4.332;2022-07-06T13:43:03;31.10;71.90
39665;DHT22;26679;50.872;4.332;2022-07-06T13:45:29;30.80;71.90
39665;DHT22;26679;50.872;4.332;2022-07-06T13:47:54;30.80;72.40
39665;DHT22;26679;50.872;4.332;2022-07-06T13:50:20;31.40;71.60
39665;DHT22;26679;50.872;4.332;2022-07-06T13:52:45;31.50;71.10
39665;DHT22;26679;50.872;4.332;2022-07-06T13:55:11;30.40;72.20
39665;DHT22;26679;50.872;4.332;2022-07-06T13:57:36;30.30;72.30
39665;DHT22;26679;50.872;4.332;2022-07-06T14:00:03;30.10;72.60
39665;DHT22;26679;50.872;4.332;2022-07-06T14:02:29;30.10;72.90
39665;DHT22;26679;50.872;4.332;2022-07-06T14:04:54;30.20;72.30
39665;DHT22;26679;50.872;4.332;2022-07-06T14:07:20;29.50;72.70
39665;DHT22;26679;50.872;4.332;2022-07-06T14:09:45;29.00;73.40
39665;DHT22;26679;50.872;4.332;2022-07-06T14:12:12;28.60;73.90
39665;DHT22;26679;50.872;4.332;2022-07-06T14:14:37;27.70;75.00
39665;DHT22;26679;50.872;4.332;2022-07-06T14:17:03;27.40;75.80
39665;DHT22;26679;50.872;4.332;2022-07-06T14:19:29;27.30;75.90
39665;DHT22;26679;50.872;4.332;2022-07-06T14:21:54;27.30;75.50
39665;DHT22;26679;50.872;4.332;2022-07-06T14:24:20;27.50;76.00
39665;DHT22;26679;50.872;4.332;2022-07-06T14:26:45;28.50;74.60
39665;DHT22;26679;50.872;4.332;2022-07-06T14:29:11;28.60;74.40
39665;DHT22;26679;50.872;4.332;2022-07-06T14:31:36;28.60;74.90
39665;DHT22;26679;50.872;4.332;2022-07-06T14:34:02;28.40;74.40
39665;DHT22;26679;50.872;4.332;2022-07-06T14:36:27;28.50;75.00
39665;DHT22;26679;50.872;4.332;2022-07-06T14:38:52;28.90;74.10
39665;DHT22;26679;50.872;4.332;2022-07-06T14:41:18;28.30;74.50
39665;DHT22;26679;50.872;4.332;2022-07-06T14:43:43;28.20;75.50
39665;DHT22;26679;50.872;4.332;2022-07-06T14:46:09;28.10;75.20
39665;DHT22;26679;50.872;4.332;2022-07-06T14:48:35;28.20;75.40
39665;DHT22;26679;50.872;4.332;2022-07-06T14:51:00;29.50;74.80
39665;DHT22;26679;50.872;4.332;2022-07-06T14:53:26;29.80;73.80
39665;DHT22;26679;50.872;4.332;2022-07-06T14:55:51;30.40;73.10
39665;DHT22;26679;50.872;4.332;2022-07-06T14:58:17;31.60;72.10
39665;DHT22;26679;50.872;4.332;2022-07-06T15:00:44;32.40;71.20
39665;DHT22;26679;50.872;4.332;2022-07-06T15:03:09;32.70;70.40
39665;DHT22;26679;50.872;4.332;2022-07-06T15:05:35;33.10;69.90
39665;DHT22;26679;50.872;4.332;2022-07-06T15:08:01;33.60;69.60
39665;DHT22;26679;50.872;4.332;2022-07-06T15:10:27;33.60;68.80
39665;DHT22;26679;50.872;4.332;2022-07-06T15:12:52;32.60;69.40
39665;DHT22;26679;50.872;4.332;2022-07-06T15:15:18;32.00;70.10
39665;DHT22;26679;50.872;4.332;2022-07-06T15:17:43;31.70;70.00
39665;DHT22;26679;50.872;4.332;2022-07-06T15:20:09;31.60;70.70
39665;DHT22;26679;50.872;4.332;2022-07-06T15:22:36;31.70;70.50
39665;DHT22;26679;50.872;4.332;2022-07-06T15:25:02;31.50;70.40
39665;DHT22;26679;50.872;4.332;2022-07-06T15:27:30;30.90;70.50
39665;DHT22;26679;50.872;4.332;2022-07-06T15:29:56;30.40;71.30
39665;DHT22;26679;50.872;4.332;2022-07-06T15:32:22;30.00;71.90
39665;DHT22;26679;50.872;4.332;2022-07-06T15:34:47;29.30;72.30
39665;DHT22;26679;50.872;4.332;2022-07-06T15:37:13;28.80;73.20
39665;DHT22;26679;50.872;4.332;2022-07-06T15:39:38;28.30;73.90
39665;DHT22;26679;50.872;4.332;2022-07-06T15:42:04;28.10;74.40